sensor_id;sensor_type;location;lat;lon;timestamp;temperature;humidity
4811;DHT22;2419;51.276;6.472;2023-04-24T00:00:56;11.10;99.90
4811;DHT22;2419;51.276;6.472;2023-04-24T00:03:25;11.10;99.90
4811;DHT22;2419;51.276;6.472;2023-04-24T00:05:55;11.10;99.90
4811;DHT22;2419;51.276;6.472;2023-04-24T00:08:23;11.00;99.90
4811;DHT22;2419;51.276;6.472;2023-04-24T00:10:51;11.00;99.90
4811;DHT22;2419;51.276;6.472;2023-04-24T00:13:19;10.90;99.90
4811;DHT22;2419;51.276;6.472;2023-04-24T00:15:49;10.80;99.90
4811;DHT22;2419;51.276;6.472;2023-04-24T00:18:17;10.80;99.90
4811;DHT22;2419;51.276;6.472;2023-04-24T00:20:45;10.80;99.90
4811;DHT22;2419;51.276;6.472;2023-04-24T00:23:13;10.60;99.90
4811;DHT22;2419;51.276;6.472;2023-04-24T00:25:41;10.60;99.90
4811;DHT22;2419;51.276;6.472;2023-04-24T00:28:09;10.60;99.90
4811;DHT22;2419;51.276;6.472;2023-04-24T00:30:37;10.40;99.90
4811;DHT22;2419;51.276;6.472;2023-04-24T00:33:06;10.40;99.90
4811;DHT22;2419;51.276;6.472;2023-04-24T00:35:34;10.30;99.90
4811;DHT22;2419;51.276;6.472;2023-04-24T00:38:02;10.20;99.90
4811;DHT22;2419;51.276;6.472;2023-04-24T00:40:30;10.30;99.90
4811;DHT22;2419;51.276;6.472;2023-04-24T00:42:58;10.20;99.90
4811;DHT22;2419;51.276;6.472;2023-04-24T00:45:26;10.20;99.90
4811;DHT22;2419;51.276;6.472;2023-04-24T00:47:55;10.20;99.90
4811;DHT22;2419;51.276;6.472;2023-04-24T00:50:25;10.20;99.90
4811;DHT22;2419;51.276;6.472;2023-04-24T00:52:54;10.10;99.90
4811;DHT22;2419;51.276;6.472;2023-04-24T00:55:22;10.10;99.90
4811;DHT22;2419;51.276;6.472;2023-04-24T00:57:50;10.00;99.90
4811;DHT22;2419;51.276;6.472;2023-04-24T01:00:20;10.00;99.90
4811;DHT22;2419;51.276;6.472;2023-04-24T01:02:48;10.00;99.90
4811;DHT22;2419;51.276;6.472;2023-04-24T01:05:18;9.90;99.90
4811;DHT22;2419;51.276;6.472;2023-04-24T01:07:48;9.90;99.90
4811;DHT22;2419;51.276;6.472;2023-04-24T01:10:16;9.90;99.90
4811;DHT22;2419;51.276;6.472;2023-04-24T01:12:46;9.90;99.90
4811;DHT22;2419;51.276;6.472;2023-04-24T01:15:14;9.90;99.90
4811;DHT22;2419;51.276;6.472;2023-04-24T01:17:43;9.90;99.90
4811;DHT22;2419;51.276;6.472;2023-04-24T01:20:14;9.90;99.90
4811;DHT22;2419;51.276;6.472;2023-04-24T01:22:43;9.90;99.90
4811;DHT22;2419;51.276;6.472;2023-04-24T01:25:11;10.00;99.90
4811;DHT22;2419;51.276;6.472;2023-04-24T01:27:39;9.90;99.90
4811;DHT22;2419;51.276;6.472;2023-04-24T01:30:08;9.90;99.90
4811;DHT22;2419;51.276;6.472;2023-04-24T01:32:37;9.90;99.90
4811;DHT22;2419;51.276;6.472;2023-04-24T01:35:06;9.90;99.90
4811;DHT22;2419;51.276;6.472;2023-04-24T01:37:35;9.80;99.90
4811;DHT22;2419;51.276;6.472;2023-04-24T01:40:07;9.80;99.90
4811;DHT22;2419;51.276;6.472;2023-04-24T01:42:35;9.70;99.90
4811;DHT22;2419;51.276;6.472;2023-04-24T01:45:04;9.80;99.90
4811;DHT22;2419;51.276;6.472;2023-04-24T01:47:33;9.80;99.90
4811;DHT22;2419;51.276;6.472;2023-04-24T01:50:02;9.70;99.90
4811;DHT22;2419;51.276;6.472;2023-04-24T01:52:31;9.70;99.90
4811;DHT22;2419;51.276;6.472;2023-04-24T01:55:00;9.70;99.90
4811;DHT22;2419;51.276;6.472;2023-04-24T01:57:30;9.70;99.90
4811;DHT22;2419;51.276;6.472;2023-04-24T01:59:58;9.60;99.90
4811;DHT22;2419;51.276;6.472;2023-04-24T02:02:28;9.60;99.90
4811;DHT22;2419;51.276;6.472;2023-04-24T02:04:57;9.60;99.90
4811;DHT22;2419;51.276;6.472;2023-04-24T02:07:25;9.60;99.90
4811;DHT22;2419;51.276;6.472;2023-04-24T02:09:53;9.60;99.90
4811;DHT22;2419;51.276;6.472;2023-04-24T02:12:22;9.60;99.90
4811;DHT22;2419;51.276;6.472;2023-04-24T02:14:52;9.60;99.90
4811;DHT22;2419;51.276;6.472;2023-04-24T02:17:20;9.60;99.90
4811;DHT22;2419;51.276;6.472;2023-04-24T02:19:48;9.60;99.90
4811;DHT22;2419;51.276;6.472;2023-04-24T02:22:16;9.60;99.90
4811;DHT22;2419;51.276;6.472;2023-04-24T02:24:44;9.70;99.90
4811;DHT22;2419;51.276;6.472;2023-04-24T02:27:14;9.70;99.90
4811;DHT22;2419;51.276;6.472;2023-04-24T02:29:42;9.70;99.90
4811;DHT22;2419;51.276;6.472;2023-04-24T02:32:13;9.70;99.90
4811;DHT22;2419;51.276;6.472;2023-04-24T02:34:42;9.70;99.90
4811;DHT22;2419;51.276;6.472;2023-04-24T02:37:11;9.70;99.90
4811;DHT22;2419;51.276;6.472;2023-04-24T02:39:39;9.70;99.90
4811;DHT22;2419;51.276;6.472;2023-04-24T02:42:08;9.70;99.90
4811;DHT22;2419;51.276;6.472;2023-04-24T02:44:36;9.70;99.90
4811;DHT22;2419;51.276;6.472;2023-04-24T02:47:04;9.70;99.90
4811;DHT22;2419;51.276;6.472;2023-04-24T02:49:33;9.70;99.90
4811;DHT22;2419;51.276;6.472;2023-04-24T02:52:01;9.60;99.90
4811;DHT22;2419;51.276;6.472;2023-04-24T02:54:29;9.70;99.90
4811;DHT22;2419;51.276;6.472;2023-04-24T02:56:57;9.70;99.90
4811;DHT22;2419;51.276;6.472;2023-04-24T02:59:25;9.70;99.90
4811;DHT22;2419;51.276;6.472;2023-04-24T03:01:55;9.70;99.90
4811;DHT22;2419;51.276;6.472;2023-04-24T03:04:23;9.70;99.90
4811;DHT22;2419;51.276;6.472;2023-04-24T03:06:53;9.70;99.90
4811;DHT22;2419;51.276;6.472;2023-04-24T03:09:21;9.70;99.90
4811;DHT22;2419;51.276;6.472;2023-04-24T03:11:49;9.80;99.90
4811;DHT22;2419;51.276;6.472;2023-04-24T03:14:17;9.70;99.90
4811;DHT22;2419;51.276;6.472;2023-04-24T03:16:45;9.70;99.90
4811;DHT22;2419;51.276;6.472;2023-04-24T03:19:13;9.80;99.90
4811;DHT22;2419;51.276;6.472;2023-04-24T03:22:03;9.70;99.90
4811;DHT22;2419;51.276;6.472;2023-04-24T03:24:32;9.80;99.90
4811;DHT22;2419;51.276;6.472;2023-04-24T03:27:00;9.70;99.90
4811;DHT22;2419;51.276;6.472;2023-04-24T03:29:47;9.80;99.90
4811;DHT22;2419;51.276;6.472;2023-04-24T03:32:18;9.80;99.90
4811;DHT22;2419;51.276;6.472;2023-04-24T03:34:47;9.80;99.90
4811;DHT22;2419;51.276;6.472;2023-04-24T03:37:16;9.80;99.90
4811;DHT22;2419;51.276;6.472;2023-04-24T03:39:52;9.80;99.90
4811;DHT22;2419;51.276;6.472;2023-04-24T03:42:24;9.80;99.90
4811;DHT22;2419;51.276;6.472;2023-04-24T03:44:55;9.80;99.90
4811;DHT22;2419;51.276;6.472;2023-04-24T03:47:28;9.70;99.90
4811;DHT22;2419;51.276;6.472;2023-04-24T03:49:59;9.70;99.90
4811;DHT22;2419;51.276;6.472;2023-04-24T03:52:29;9.70;99.90
4811;DHT22;2419;51.276;6.472;2023-04-24T03:54:57;9.70;99.90
4811;DHT22;2419;51.276;6.472;2023-04-24T03:57:26;9.70;99.90
4811;DHT22;2419;51.276;6.472;2023-04-24T04:00:10;9.80;99.90
4811;DHT22;2419;51.276;6.472;2023-04-24T04:02:41;9.80;99.90
4811;DHT22;2419;51.276;6.472;2023-04-24T04:05:10;9.70;99.90
4811;DHT22;2419;51.276;6.472;2023-04-24T04:07:40;9.70;99.90
4811;DHT22;2419;51.276;6.472;2023-04-24T04:10:08;9.70;99.90
4811;DHT22;2419;51.276;6.472;2023-04-24T04:12:37;9.70;99.90
4811;DHT22;2419;51.276;6.472;2023-04-24T04:15:06;9.70;99.90
4811;DHT22;2419;51.276;6.472;2023-04-24T04:17:34;9.70;99.90
4811;DHT22;2419;51.276;6.472;2023-04-24T04:20:07;9.60;99.90
4811;DHT22;2419;51.276;6.472;2023-04-24T04:22:39;9.60;99.90
4811;DHT22;2419;51.276;6.472;2023-04-24T04:25:14;9.60;99.90
4811;DHT22;2419;51.276;6.472;2023-04-24T04:27:42;9.70;99.90
4811;DHT22;2419;51.276;6.472;2023-04-24T04:30:12;9.60;99.90
4811;DHT22;2419;51.276;6.472;2023-04-24T04:32:47;9.60;99.90
4811;DHT22;2419;51.276;6.472;2023-04-24T04:35:15;9.60;99.90
4811;DHT22;2419;51.276;6.472;2023-04-24T04:37:45;9.60;99.90
4811;DHT22;2419;51.276;6.472;2023-04-24T04:40:20;9.60;99.90
4811;DHT22;2419;51.276;6.472;2023-04-24T04:42:54;9.50;99.90
4811;DHT22;2419;51.276;6.472;2023-04-24T04:45:23;9.50;99.90
4811;DHT22;2419;51.276;6.472;2023-04-24T04:48:12;9.30;99.90
4811;DHT22;2419;51.276;6.472;2023-04-24T04:50:41;9.20;99.90
4811;DHT22;2419;51.276;6.472;2023-04-24T04:53:10;9.00;99.90
4811;DHT22;2419;51.276;6.472;2023-04-24T04:55:38;8.90;99.90
4811;DHT22;2419;51.276;6.472;2023-04-24T04:58:13;9.00;99.90
4811;DHT22;2419;51.276;6.472;2023-04-24T05:00:41;8.90;99.90
4811;DHT22;2419;51.276;6.472;2023-04-24T05:03:18;8.90;99.90
4811;DHT22;2419;51.276;6.472;2023-04-24T05:05:54;8.90;99.90
4811;DHT22;2419;51.276;6.472;2023-04-24T05:08:24;8.80;99.90
4811;DHT22;2419;51.276;6.472;2023-04-24T05:10:55;8.90;99.90
4811;DHT22;2419;51.276;6.472;2023-04-24T05:13:25;8.90;99.90
4811;DHT22;2419;51.276;6.472;2023-04-24T05:16:10;8.90;99.90
4811;DHT22;2419;51.276;6.472;2023-04-24T05:18:38;8.90;99.90
4811;DHT22;2419;51.276;6.472;2023-04-24T05:21:09;8.80;99.90
4811;DHT22;2419;51.276;6.472;2023-04-24T05:23:40;8.90;99.90
4811;DHT22;2419;51.276;6.472;2023-04-24T05:26:11;8.80;99.90
4811;DHT22;2419;51.276;6.472;2023-04-24T05:28:40;8.90;99.90
4811;DHT22;2419;51.276;6.472;2023-04-24T05:31:11;8.90;99.90
4811;DHT22;2419;51.276;6.472;2023-04-24T05:33:40;9.00;99.90
4811;DHT22;2419;51.276;6.472;2023-04-24T05:36:08;8.90;99.90
4811;DHT22;2419;51.276;6.472;2023-04-24T05:38:36;9.00;99.90
4811;DHT22;2419;51.276;6.472;2023-04-24T05:41:05;9.00;99.90
4811;DHT22;2419;51.276;6.472;2023-04-24T05:43:33;9.10;99.90
4811;DHT22;2419;51.276;6.472;2023-04-24T05:46:01;9.10;99.90
4811;DHT22;2419;51.276;6.472;2023-04-24T05:48:29;9.00;99.90
4811;DHT22;2419;51.276;6.472;2023-04-24T05:51:00;9.00;99.90
4811;DHT22;2419;51.276;6.472;2023-04-24T05:53:28;8.90;99.90
4811;DHT22;2419;51.276;6.472;2023-04-24T05:55:57;8.90;99.90
4811;DHT22;2419;51.276;6.472;2023-04-24T05:58:27;8.90;99.90
4811;DHT22;2419;51.276;6.472;2023-04-24T06:00:55;9.00;99.90
4811;DHT22;2419;51.276;6.472;2023-04-24T06:03:25;8.90;99.90
4811;DHT22;2419;51.276;6.472;2023-04-24T06:05:53;8.90;99.90
4811;DHT22;2419;51.276;6.472;2023-04-24T06:08:22;8.90;99.90
4811;DHT22;2419;51.276;6.472;2023-04-24T06:10:51;8.90;99.90
4811;DHT22;2419;51.276;6.472;2023-04-24T06:13:21;8.80;99.90
4811;DHT22;2419;51.276;6.472;2023-04-24T06:16:13;8.80;99.90
4811;DHT22;2419;51.276;6.472;2023-04-24T06:18:46;8.70;99.90
4811;DHT22;2419;51.276;6.472;2023-04-24T06:21:16;8.70;99.90
4811;DHT22;2419;51.276;6.472;2023-04-24T06:23:44;8.60;99.90
4811;DHT22;2419;51.276;6.472;2023-04-24T06:26:14;8.70;99.90
4811;DHT22;2419;51.276;6.472;2023-04-24T06:28:42;8.60;99.90
4811;DHT22;2419;51.276;6.472;2023-04-24T06:31:10;8.60;99.90
4811;DHT22;2419;51.276;6.472;2023-04-24T06:33:39;8.60;99.90
4811;DHT22;2419;51.276;6.472;2023-04-24T06:36:09;8.70;99.90
4811;DHT22;2419;51.276;6.472;2023-04-24T06:38:38;8.70;99.90
4811;DHT22;2419;51.276;6.472;2023-04-24T06:41:06;8.80;99.90
4811;DHT22;2419;51.276;6.472;2023-04-24T06:43:35;8.80;99.90
4811;DHT22;2419;51.276;6.472;2023-04-24T06:46:03;8.80;99.90
4811;DHT22;2419;51.276;6.472;2023-04-24T06:48:31;8.80;99.90
4811;DHT22;2419;51.276;6.472;2023-04-24T06:51:00;8.80;99.90
4811;DHT22;2419;51.276;6.472;2023-04-24T06:53:28;8.70;99.90
4811;DHT22;2419;51.276;6.472;2023-04-24T06:55:56;8.70;99.90
4811;DHT22;2419;51.276;6.472;2023-04-24T06:58:24;8.60;99.90
4811;DHT22;2419;51.276;6.472;2023-04-24T07:00:52;8.60;99.90
4811;DHT22;2419;51.276;6.472;2023-04-24T07:03:21;8.60;99.90
4811;DHT22;2419;51.276;6.472;2023-04-24T07:05:49;8.40;99.90
4811;DHT22;2419;51.276;6.472;2023-04-24T07:08:19;8.40;99.90
4811;DHT22;2419;51.276;6.472;2023-04-24T07:10:49;8.20;99.90
4811;DHT22;2419;51.276;6.472;2023-04-24T07:13:17;8.00;99.90
4811;DHT22;2419;51.276;6.472;2023-04-24T07:15:45;8.10;99.90
4811;DHT22;2419;51.276;6.472;2023-04-24T07:18:15;7.90;99.90
4811;DHT22;2419;51.276;6.472;2023-04-24T07:20:43;7.90;99.90
4811;DHT22;2419;51.276;6.472;2023-04-24T07:23:11;7.90;99.90
4811;DHT22;2419;51.276;6.472;2023-04-24T07:25:41;7.80;99.90
4811;DHT22;2419;51.276;6.472;2023-04-24T07:28:09;7.70;99.90
4811;DHT22;2419;51.276;6.472;2023-04-24T07:30:37;7.60;99.90
4811;DHT22;2419;51.276;6.472;2023-04-24T07:33:05;7.60;99.90
4811;DHT22;2419;51.276;6.472;2023-04-24T07:35:33;7.70;99.90
4811;DHT22;2419;51.276;6.472;2023-04-24T07:38:02;7.60;99.90
4811;DHT22;2419;51.276;6.472;2023-04-24T07:40:30;7.60;99.90
4811;DHT22;2419;51.276;6.472;2023-04-24T07:42:59;7.60;99.90
4811;DHT22;2419;51.276;6.472;2023-04-24T07:45:27;7.70;99.90
4811;DHT22;2419;51.276;6.472;2023-04-24T07:47:55;7.80;99.90
4811;DHT22;2419;51.276;6.472;2023-04-24T07:50:24;7.80;99.90
4811;DHT22;2419;51.276;6.472;2023-04-24T07:52:52;7.90;99.90
4811;DHT22;2419;51.276;6.472;2023-04-24T07:55:20;7.90;99.90
4811;DHT22;2419;51.276;6.472;2023-04-24T07:57:52;7.80;99.90
4811;DHT22;2419;51.276;6.472;2023-04-24T08:00:21;7.80;99.90
4811;DHT22;2419;51.276;6.472;2023-04-24T08:02:49;8.00;99.90
4811;DHT22;2419;51.276;6.472;2023-04-24T08:05:17;8.10;99.90
4811;DHT22;2419;51.276;6.472;2023-04-24T08:07:46;8.10;99.90
4811;DHT22;2419;51.276;6.472;2023-04-24T08:10:15;8.10;99.90
4811;DHT22;2419;51.276;6.472;2023-04-24T08:12:43;8.20;99.90
4811;DHT22;2419;51.276;6.472;2023-04-24T08:15:11;8.30;99.90
4811;DHT22;2419;51.276;6.472;2023-04-24T08:17:40;8.40;99.90
4811;DHT22;2419;51.276;6.472;2023-04-24T08:20:12;8.40;99.90
4811;DHT22;2419;51.276;6.472;2023-04-24T08:22:41;8.40;99.90
4811;DHT22;2419;51.276;6.472;2023-04-24T08:25:09;8.40;99.90
4811;DHT22;2419;51.276;6.472;2023-04-24T08:27:38;8.40;99.90
4811;DHT22;2419;51.276;6.472;2023-04-24T08:30:07;8.30;99.90
4811;DHT22;2419;51.276;6.472;2023-04-24T08:32:36;8.40;99.90
4811;DHT22;2419;51.276;6.472;2023-04-24T08:35:06;8.40;99.90
4811;DHT22;2419;51.276;6.472;2023-04-24T08:37:36;8.50;99.90
4811;DHT22;2419;51.276;6.472;2023-04-24T08:40:09;8.60;99.90
4811;DHT22;2419;51.276;6.472;2023-04-24T08:42:39;8.60;99.90
4811;DHT22;2419;51.276;6.472;2023-04-24T08:45:09;8.50;99.90
4811;DHT22;2419;51.276;6.472;2023-04-24T08:47:38;8.50;99.90
4811;DHT22;2419;51.276;6.472;2023-04-24T08:50:09;8.40;99.90
4811;DHT22;2419;51.276;6.472;2023-04-24T08:52:37;8.50;99.90
4811;DHT22;2419;51.276;6.472;2023-04-24T08:55:06;8.60;99.90
4811;DHT22;2419;51.276;6.472;2023-04-24T08:57:34;8.50;99.90
4811;DHT22;2419;51.276;6.472;2023-04-24T09:00:06;8.60;99.90
4811;DHT22;2419;51.276;6.472;2023-04-24T09:02:40;8.60;99.90
4811;DHT22;2419;51.276;6.472;2023-04-24T09:05:12;8.70;99.90
4811;DHT22;2419;51.276;6.472;2023-04-24T09:07:43;8.70;99.90
4811;DHT22;2419;51.276;6.472;2023-04-24T09:10:12;8.70;99.90
4811;DHT22;2419;51.276;6.472;2023-04-24T09:12:41;8.50;99.90
4811;DHT22;2419;51.276;6.472;2023-04-24T09:15:10;8.60;99.90
4811;DHT22;2419;51.276;6.472;2023-04-24T09:17:38;8.60;99.90
4811;DHT22;2419;51.276;6.472;2023-04-24T09:20:08;8.60;99.90
4811;DHT22;2419;51.276;6.472;2023-04-24T09:22:37;8.60;99.90
4811;DHT22;2419;51.276;6.472;2023-04-24T09:25:07;8.60;99.90
4811;DHT22;2419;51.276;6.472;2023-04-24T09:27:36;8.60;99.90
4811;DHT22;2419;51.276;6.472;2023-04-24T09:30:04;8.70;99.90
4811;DHT22;2419;51.276;6.472;2023-04-24T09:32:34;8.80;99.90
4811;DHT22;2419;51.276;6.472;2023-04-24T09:35:07;8.80;99.90
4811;DHT22;2419;51.276;6.472;2023-04-24T09:37:38;8.80;99.90
4811;DHT22;2419;51.276;6.472;2023-04-24T09:40:13;8.80;99.90
4811;DHT22;2419;51.276;6.472;2023-04-24T09:42:44;8.90;99.90
4811;DHT22;2419;51.276;6.472;2023-04-24T09:45:13;8.90;99.90
4811;DHT22;2419;51.276;6.472;2023-04-24T09:47:42;9.00;99.90
4811;DHT22;2419;51.276;6.472;2023-04-24T09:50:15;9.10;99.90
4811;DHT22;2419;51.276;6.472;2023-04-24T09:52:58;9.20;99.90
4811;DHT22;2419;51.276;6.472;2023-04-24T09:55:27;9.30;99.90
4811;DHT22;2419;51.276;6.472;2023-04-24T09:57:57;9.30;99.90
4811;DHT22;2419;51.276;6.472;2023-04-24T10:00:27;9.20;99.90
4811;DHT22;2419;51.276;6.472;2023-04-24T10:02:57;9.20;99.90
4811;DHT22;2419;51.276;6.472;2023-04-24T10:05:29;9.30;99.90
4811;DHT22;2419;51.276;6.472;2023-04-24T10:08:01;9.50;99.90
4811;DHT22;2419;51.276;6.472;2023-04-24T10:10:29;9.60;99.90
4811;DHT22;2419;51.276;6.472;2023-04-24T10:12:59;9.60;99.90
4811;DHT22;2419;51.276;6.472;2023-04-24T10:15:27;9.60;99.90
4811;DHT22;2419;51.276;6.472;2023-04-24T10:17:57;9.70;99.90
4811;DHT22;2419;51.276;6.472;2023-04-24T10:20:29;9.60;99.90
4811;DHT22;2419;51.276;6.472;2023-04-24T10:22:58;9.40;99.90
4811;DHT22;2419;51.276;6.472;2023-04-24T10:25:28;9.30;99.90
4811;DHT22;2419;51.276;6.472;2023-04-24T10:27:57;9.20;99.90
4811;DHT22;2419;51.276;6.472;2023-04-24T10:30:30;9.10;99.90
4811;DHT22;2419;51.276;6.472;2023-04-24T10:33:02;9.20;99.90
4811;DHT22;2419;51.276;6.472;2023-04-24T10:35:31;9.30;99.90
4811;DHT22;2419;51.276;6.472;2023-04-24T10:38:08;9.40;99.90
4811;DHT22;2419;51.276;6.472;2023-04-24T10:40:38;9.50;99.90
4811;DHT22;2419;51.276;6.472;2023-04-24T10:43:08;10.10;99.90
4811;DHT22;2419;51.276;6.472;2023-04-24T10:45:38;10.50;99.90
4811;DHT22;2419;51.276;6.472;2023-04-24T10:48:07;11.10;99.90
4811;DHT22;2419;51.276;6.472;2023-04-24T10:50:45;11.50;99.90
4811;DHT22;2419;51.276;6.472;2023-04-24T10:53:16;11.10;99.90
4811;DHT22;2419;51.276;6.472;2023-04-24T10:55:47;10.80;99.90
4811;DHT22;2419;51.276;6.472;2023-04-24T10:58:16;10.60;99.90
4811;DHT22;2419;51.276;6.472;2023-04-24T11:00:55;10.40;99.90
4811;DHT22;2419;51.276;6.472;2023-04-24T11:03:27;10.00;99.90
4811;DHT22;2419;51.276;6.472;2023-04-24T11:05:58;9.90;99.90
4811;DHT22;2419;51.276;6.472;2023-04-24T11:08:28;9.90;99.90
4811;DHT22;2419;51.276;6.472;2023-04-24T11:11:01;10.00;99.90
4811;DHT22;2419;51.276;6.472;2023-04-24T11:16:37;10.40;99.90
4811;DHT22;2419;51.276;6.472;2023-04-24T11:19:08;10.60;99.90
4811;DHT22;2419;51.276;6.472;2023-04-24T11:21:40;10.90;99.90
4811;DHT22;2419;51.276;6.472;2023-04-24T11:24:26;11.40;99.90
4811;DHT22;2419;51.276;6.472;2023-04-24T11:26:58;11.80;99.90
4811;DHT22;2419;51.276;6.472;2023-04-24T11:29:40;12.00;99.90
4811;DHT22;2419;51.276;6.472;2023-04-24T11:32:19;11.60;99.90
4811;DHT22;2419;51.276;6.472;2023-04-24T11:34:52;11.00;99.90
4811;DHT22;2419;51.276;6.472;2023-04-24T11:37:22;10.80;99.90
4811;DHT22;2419;51.276;6.472;2023-04-24T11:39:54;10.60;99.90
4811;DHT22;2419;51.276;6.472;2023-04-24T11:42:24;10.30;99.90
4811;DHT22;2419;51.276;6.472;2023-04-24T11:44:54;10.20;99.90
4811;DHT22;2419;51.276;6.472;2023-04-24T11:47:30;10.10;99.90
4811;DHT22;2419;51.276;6.472;2023-04-24T11:50:00;10.20;99.90
4811;DHT22;2419;51.276;6.472;2023-04-24T11:52:29;10.30;99.90
4811;DHT22;2419;51.276;6.472;2023-04-24T11:54:57;10.50;99.90
4811;DHT22;2419;51.276;6.472;2023-04-24T11:57:27;10.90;99.90
4811;DHT22;2419;51.276;6.472;2023-04-24T12:00:00;11.20;99.90
4811;DHT22;2419;51.276;6.472;2023-04-24T12:02:38;11.30;99.90
4811;DHT22;2419;51.276;6.472;2023-04-24T12:05:07;11.60;99.90
4811;DHT22;2419;51.276;6.472;2023-04-24T12:07:47;11.70;99.90
4811;DHT22;2419;51.276;6.472;2023-04-24T12:10:20;11.60;99.90
4811;DHT22;2419;51.276;6.472;2023-04-24T12:12:49;11.70;99.90
4811;DHT22;2419;51.276;6.472;2023-04-24T12:15:19;11.90;99.90
4811;DHT22;2419;51.276;6.472;2023-04-24T12:17:48;12.00;99.90
4811;DHT22;2419;51.276;6.472;2023-04-24T12:20:24;12.60;99.90
4811;DHT22;2419;51.276;6.472;2023-04-24T12:22:54;12.90;99.90
4811;DHT22;2419;51.276;6.472;2023-04-24T12:25:24;13.10;99.90
4811;DHT22;2419;51.276;6.472;2023-04-24T12:27:55;13.40;99.90
4811;DHT22;2419;51.276;6.472;2023-04-24T12:30:27;13.30;99.90
4811;DHT22;2419;51.276;6.472;2023-04-24T12:32:57;13.40;99.90
4811;DHT22;2419;51.276;6.472;2023-04-24T12:35:28;13.50;99.90
4811;DHT22;2419;51.276;6.472;2023-04-24T12:38:05;13.10;99.90
4811;DHT22;2419;51.276;6.472;2023-04-24T12:40:33;12.60;99.90
4811;DHT22;2419;51.276;6.472;2023-04-24T12:43:13;12.40;99.90
4811;DHT22;2419;51.276;6.472;2023-04-24T12:45:41;12.50;99.90
4811;DHT22;2419;51.276;6.472;2023-04-24T12:48:09;12.30;99.90
4811;DHT22;2419;51.276;6.472;2023-04-24T12:50:38;12.40;99.90
4811;DHT22;2419;51.276;6.472;2023-04-24T12:53:06;12.40;99.90
4811;DHT22;2419;51.276;6.472;2023-04-24T12:55:34;12.50;99.90
4811;DHT22;2419;51.276;6.472;2023-04-24T12:58:04;12.60;99.90
4811;DHT22;2419;51.276;6.472;2023-04-24T13:00:32;12.50;99.90
4811;DHT22;2419;51.276;6.472;2023-04-24T13:03:01;12.60;99.90
4811;DHT22;2419;51.276;6.472;2023-04-24T13:05:30;12.80;99.90
4811;DHT22;2419;51.276;6.472;2023-04-24T13:07:58;12.90;99.90
4811;DHT22;2419;51.276;6.472;2023-04-24T13:10:26;12.90;99.90
4811;DHT22;2419;51.276;6.472;2023-04-24T13:12:54;12.70;99.90
4811;DHT22;2419;51.276;6.472;2023-04-24T13:15:23;12.30;99.90
4811;DHT22;2419;51.276;6.472;2023-04-24T13:17:51;12.30;99.90
4811;DHT22;2419;51.276;6.472;2023-04-24T13:20:20;12.10;99.90
4811;DHT22;2419;51.276;6.472;2023-04-24T13:22:48;12.00;99.90
4811;DHT22;2419;51.276;6.472;2023-04-24T13:25:16;11.90;99.90
4811;DHT22;2419;51.276;6.472;2023-04-24T13:27:44;11.90;99.90
4811;DHT22;2419;51.276;6.472;2023-04-24T13:30:13;12.00;99.90
4811;DHT22;2419;51.276;6.472;2023-04-24T13:32:42;12.00;99.90
4811;DHT22;2419;51.276;6.472;2023-04-24T13:35:10;12.10;99.90
4811;DHT22;2419;51.276;6.472;2023-04-24T13:37:38;12.10;99.90
4811;DHT22;2419;51.276;6.472;2023-04-24T13:40:07;11.90;99.90
4811;DHT22;2419;51.276;6.472;2023-04-24T13:42:35;12.00;99.90
4811;DHT22;2419;51.276;6.472;2023-04-24T13:45:04;11.90;99.90
4811;DHT22;2419;51.276;6.472;2023-04-24T13:47:52;11.90;99.90
4811;DHT22;2419;51.276;6.472;2023-04-24T13:50:21;11.90;99.90
4811;DHT22;2419;51.276;6.472;2023-04-24T13:52:49;12.10;99.90
4811;DHT22;2419;51.276;6.472;2023-04-24T13:55:17;12.30;99.90
4811;DHT22;2419;51.276;6.472;2023-04-24T13:57:45;12.60;99.90
4811;DHT22;2419;51.276;6.472;2023-04-24T14:00:13;13.00;99.90
4811;DHT22;2419;51.276;6.472;2023-04-24T14:02:41;13.20;99.90
4811;DHT22;2419;51.276;6.472;2023-04-24T14:05:12;13.00;99.90
4811;DHT22;2419;51.276;6.472;2023-04-24T14:07:40;12.80;99.90
4811;DHT22;2419;51.276;6.472;2023-04-24T14:10:09;12.70;99.90
4811;DHT22;2419;51.276;6.472;2023-04-24T14:12:37;12.60;99.90
4811;DHT22;2419;51.276;6.472;2023-04-24T14:15:06;12.10;99.90
4811;DHT22;2419;51.276;6.472;2023-04-24T14:17:35;12.10;99.90
4811;DHT22;2419;51.276;6.472;2023-04-24T14:20:04;12.40;99.90
4811;DHT22;2419;51.276;6.472;2023-04-24T14:22:34;12.50;99.90
4811;DHT22;2419;51.276;6.472;2023-04-24T14:25:03;12.70;99.90
4811;DHT22;2419;51.276;6.472;2023-04-24T14:27:32;12.50;99.90
4811;DHT22;2419;51.276;6.472;2023-04-24T14:30:01;12.30;99.90
4811;DHT22;2419;51.276;6.472;2023-04-24T14:32:29;12.50;99.90
4811;DHT22;2419;51.276;6.472;2023-04-24T14:34:58;12.60;99.90
4811;DHT22;2419;51.276;6.472;2023-04-24T14:37:26;12.40;99.90
4811;DHT22;2419;51.276;6.472;2023-04-24T14:39:55;12.30;99.90
4811;DHT22;2419;51.276;6.472;2023-04-24T14:42:41;12.40;99.90
4811;DHT22;2419;51.276;6.472;2023-04-24T14:45:10;12.60;99.90
4811;DHT22;2419;51.276;6.472;2023-04-24T14:47:38;12.60;99.90
4811;DHT22;2419;51.276;6.472;2023-04-24T14:50:07;12.80;99.90
4811;DHT22;2419;51.276;6.472;2023-04-24T14:52:36;13.00;99.90
4811;DHT22;2419;51.276;6.472;2023-04-24T14:55:08;12.80;99.90
4811;DHT22;2419;51.276;6.472;2023-04-24T14:57:36;12.70;99.90
4811;DHT22;2419;51.276;6.472;2023-04-24T15:00:06;12.80;99.90
4811;DHT22;2419;51.276;6.472;2023-04-24T15:02:35;13.10;99.90
4811;DHT22;2419;51.276;6.472;2023-04-24T15:05:07;13.20;99.90
4811;DHT22;2419;51.276;6.472;2023-04-24T15:07:37;13.50;99.90
4811;DHT22;2419;51.276;6.472;2023-04-24T15:10:06;13.60;99.90
4811;DHT22;2419;51.276;6.472;2023-04-24T15:12:35;13.60;99.90
4811;DHT22;2419;51.276;6.472;2023-04-24T15:15:04;13.60;99.90
4811;DHT22;2419;51.276;6.472;2023-04-24T15:17:33;13.10;99.90
4811;DHT22;2419;51.276;6.472;2023-04-24T15:20:01;12.80;99.90
4811;DHT22;2419;51.276;6.472;2023-04-24T15:22:30;12.60;99.90
4811;DHT22;2419;51.276;6.472;2023-04-24T15:24:58;12.60;99.90
4811;DHT22;2419;51.276;6.472;2023-04-24T15:27:26;12.60;99.90
4811;DHT22;2419;51.276;6.472;2023-04-24T15:29:55;12.70;99.90
4811;DHT22;2419;51.276;6.472;2023-04-24T15:32:25;12.80;99.90
4811;DHT22;2419;51.276;6.472;2023-04-24T15:34:53;13.10;99.90
4811;DHT22;2419;51.276;6.472;2023-04-24T15:37:34;13.40;99.90
4811;DHT22;2419;51.276;6.472;2023-04-24T15:40:03;13.40;99.90
4811;DHT22;2419;51.276;6.472;2023-04-24T15:42:32;13.20;99.90
4811;DHT22;2419;51.276;6.472;2023-04-24T15:45:02;13.10;99.90
4811;DHT22;2419;51.276;6.472;2023-04-24T15:47:31;12.80;99.90
4811;DHT22;2419;51.276;6.472;2023-04-24T15:49:59;12.70;99.90
4811;DHT22;2419;51.276;6.472;2023-04-24T15:52:27;12.60;99.90
4811;DHT22;2419;51.276;6.472;2023-04-24T15:54:55;12.60;99.90
4811;DHT22;2419;51.276;6.472;2023-04-24T15:57:23;12.90;99.90
4811;DHT22;2419;51.276;6.472;2023-04-24T15:59:52;13.00;99.90
4811;DHT22;2419;51.276;6.472;2023-04-24T16:02:22;12.90;99.90
4811;DHT22;2419;51.276;6.472;2023-04-24T16:04:50;12.80;99.90
4811;DHT22;2419;51.276;6.472;2023-04-24T16:07:18;12.70;99.90
4811;DHT22;2419;51.276;6.472;2023-04-24T16:09:46;12.50;99.90
4811;DHT22;2419;51.276;6.472;2023-04-24T16:12:14;12.30;99.90
4811;DHT22;2419;51.276;6.472;2023-04-24T16:14:43;12.40;99.90
4811;DHT22;2419;51.276;6.472;2023-04-24T16:17:11;12.60;99.90
4811;DHT22;2419;51.276;6.472;2023-04-24T16:19:40;12.70;99.90
4811;DHT22;2419;51.276;6.472;2023-04-24T16:22:08;12.70;99.90
4811;DHT22;2419;51.276;6.472;2023-04-24T16:24:36;12.60;99.90
4811;DHT22;2419;51.276;6.472;2023-04-24T16:27:04;12.30;99.90
4811;DHT22;2419;51.276;6.472;2023-04-24T16:29:33;12.30;99.90
4811;DHT22;2419;51.276;6.472;2023-04-24T16:32:01;12.20;99.90